map of JYV home
JYV - Airport
Location
City:  Jyväskylä, Keski-Suomi (Mellersta Finland, Central Finland), Finland
ICAO:EFJY
IATA:JYV

Details
Type:Airport (Aerodrome, Airfield)
Use:Public/Civil, International (customs port of entry)
Latitude:62°23'58"N (62.399453)
Longitude:25°40'42"E (25.678253)
Datum:WGS 1984
Elevation:459 ft (140 m)
Variation:10.25°E (WMM2015v2 magnetic declination)
0.21° annual change
Runways:1
Longest:8533 × 197 ft (2601 × 60 m), paved

Time
Time Zone:UTC+2 (DST+3)
Local Time:

Weather
METAR:EFJY 041350Z 27005KT 220V300 4300 -SHSN SCT020 M08/M10 Q1011
TAF:EFJY 041136Z 0412/0512 25008KT 8000 -SN FEW012 BKN015
TEMPO 0412/0418 4000 -SN BKN012
BECMG 0421/0423 BKN006
BECMG 0503/0505 BKN003
BECMG 0505/0507 3000 -SN BKN005

Related Locations
Nearby:
Farthest:NZTB: 11123 mi / 17901 km
Terra Nova Bay [Mario Zucchelli Station], AQ

Find:

   beyond  
but within

Other Information
Maps:
NOTAMs:
Links:
Sources:

  
  • flag of Finland
  

Sectional Chart

Flight Planning
at skyvector.com

Satellite Image

Google Maps Satellite view

 

Copyright © 2004-2019 Karl L. Swartz. All rights reserved.
The Great Circle Mapper name and logo are trademarks of the Great Circle Mapper.
All other trademarks mentioned herein belong to their respective owners.
Please see credits for attibutions and further copyright information.

  Follow gcmap on Facebook Follow gcmap on Twitter GCmap on LinkedIn

hCard Microformat

Geo Microformat